Gove Airport
YPGV : now visible

Airfield :











YOU CAN JOIN US ON...

 
LOGIN :

Register | Disclaimer

   EN    FR    IT 

 









Legend :    VFR   Marginal VFR   IFR   Intensive IFR   Very Intensive IFR
Visi :
Ceiling :
>= 8 km
>= 3000ft
5 to 8 km
1000 to 3000 ft
1500m to 5 km
500 to 1000 ft
800 to 1500m
200 to 500 ft
< 800m
< 200 ft
Symbols :   Thunderstorms  Fog  Heavy snow  Heavy precipitations  Wind > 20 kt






- Airport Elevation : 192 ft
- IATA code : GOV


YPGV - Gove

CURRENT METAR :
  • 171230Z AUTO 05004KT 9999 // NCD 27/25 Q1006 RF00.0/001.2

EXPIRED METARs :
  • 171200Z AUTO 05004KT 9999 // SCT022 BKN033 27/25 Q1006
  • 171130Z AUTO 05003KT 9999 // SCT022 SCT030 27/25 Q1005
  • 171100Z AUTO 04004KT 9999 // SCT023 SCT047 27/25 Q1005
  • 171030Z AUTO 02005KT 9999 // SCT023 27/25 Q1005 RF00.0/001.2
  • 171000Z AUTO 02005KT 9999 // SCT022 SCT026 SCT040 28/25 Q1004

TAF TAF YPGV
Valid from the 17 at 08:00 until the 17 at 20:00 UTC


170642Z 1708/1720 01010KT 9999 -SHRA SCT015
TEMPO 1708/1720 10015G25KT 1000 +SHRA BKN006
PROB30
TEMPO 1708/1720 VRB20G35KT 0500 +TSRA BKN005 SCT015CB
YBBB FIR / Oceania



MET'MAP, your aeronautical weather chart ! - Copyright ORBIFLY December 2007 - Disclaimer

ORBIFLY MET'MAP TEAM :

Programming & Development : Alexandra Zaïnal
Concept & original design : Baudouin d'Aumeries
Assistance for programming : Marc-Olivier Méhu
Technical & hardware support : Manuel Goepfert

Contact : metmap@orbifly.com




SOURCES & CREDITS :

   NOAA       Earth
Advisory